KBGE/BGE METAR and TAF weather

Enter ICAO airport designator
Station Type Date Time Source
KBGE METAR 2022/01/25 04:35 UTC NOAA

KBGE 250435Z AUTO 00000KT 10SM CLR 07/03 A3001 RMK AO2 T00670032


Station Type Date Time Source
KBGE Decoded METAR 2022/01/25 04:35 UTC NOAA

Bainbridge, Decatur County Industrial Air Park Airport, GA, United States (KBGE) 30-58N 084-38W
Jan 24, 2022 - 11:35 PM EST / 2022.01.25 0435 UTC
Wind: Calm:0
Visibility: 10 mile(s):0
Sky conditions: clear
Temperature: 44.1 F (6.7 C)
Dew Point: 37.8 F (3.2 C)
Relative Humidity: 78%
Pressure (altimeter): 30.01 in. Hg (1016 hPa)
ob: KBGE 250435Z AUTO 00000KT 10SM CLR 07/03 A3001 RMK AO2 T00670032
cycle: 4

Station Type Date Time Source
KBGE TAF UTC NOAA

Error!

Example: see airport list